Terminal Aerodrome Forecast
Issued by NWS Lake Charles, LA

Home | Current Version | Previous Version | Text Only | Print | Product List | Glossary On
Versions: 1 2 3 4 5 6 7 8 9 10 11 12 13 14 15 16
000
FTUS44 KLCH 301120
TAFLFT
TAF
KLFT 301120Z 3012/3112 30005KT P6SM VCTS FEW050CB
     FM302000 03006KT P6SM VCTS SCT050CB
     FM310200 34006KT P6SM SCT050=

USA.gov is the U.S. government's official web portal to all federal, state and local government web resources and services.